Time;durP1;ratioP1;P1;durP2;ratioP2;P2;SDS_P1;SDS_P2;PMS_P1;PMS_P2;Temp;Humidity;BMP_temperature;BMP_pressure;BME280_temperature;BME280_humidity;BME280_pressure;Samples;Min_cycle;Max_cycle;Signal;HPM_P1;HPM_P2
2022/03/03 00:00:19;;;;;;;23.33;16.80;;;;;;;2.84;74.52;98408.22;4154168;28;20275;-91
2022/03/03 00:02:22;;;;;;;24.10;15.63;;;;;;;2.83;74.48;98413.44;4161784;28;20194;-91
2022/03/03 00:07:35;;;;;;;24.92;16.50;;;;;;;2.78;74.45;98410.13;503852;23;21279;-90
2022/03/03 00:09:40;;;;;;;23.65;16.00;;;;;;;2.74;74.86;98400.84;4125398;28;20687;-89
2022/03/03 00:11:43;;;;;;;22.48;15.82;;;;;;;2.70;75.12;98406.97;4139960;28;20284;-87
2022/03/03 00:13:46;;;;;;;24.67;16.38;;;;;;;2.67;74.79;98399.38;4139487;28;20217;-89
2022/03/03 00:15:49;;;;;;;20.10;15.80;;;;;;;2.64;74.45;98404.59;4121577;28;20213;-89
2022/03/03 00:17:52;;;;;;;23.30;17.00;;;;;;;2.65;74.88;98405.47;4139354;28;20212;-90
2022/03/03 00:19:55;;;;;;;23.25;16.65;;;;;;;2.62;75.22;98416.69;4139158;28;20208;-89
2022/03/03 00:21:58;;;;;;;24.77;15.85;;;;;;;2.62;75.14;98415.88;4123605;28;20580;-90
2022/03/03 00:24:01;;;;;;;26.08;16.85;;;;;;;2.58;75.18;98412.53;4138870;28;20579;-86
2022/03/03 00:26:06;;;;;;;23.80;15.73;;;;;;;2.56;75.22;98404.03;4139357;28;20260;-90
2022/03/03 00:28:09;;;;;;;26.02;16.70;;;;;;;2.53;75.04;98404.13;4128313;28;20211;-89
2022/03/03 00:30:13;;;;;;;24.15;15.93;;;;;;;2.54;75.27;98410.09;4134486;28;20232;-90
2022/03/03 00:32:16;;;;;;;24.92;16.65;;;;;;;2.55;75.07;98415.19;4135650;28;20219;-90
2022/03/03 00:34:20;;;;;;;23.60;16.92;;;;;;;2.54;75.05;98405.81;4141292;28;20230;-88
2022/03/03 00:36:23;;;;;;;27.27;17.17;;;;;;;2.54;74.97;98408.38;4140318;28;20212;-89
2022/03/03 00:38:26;;;;;;;23.17;16.92;;;;;;;2.52;75.17;98405.00;4138458;28;20283;-90
2022/03/03 00:40:29;;;;;;;23.40;17.00;;;;;;;2.52;75.34;98409.31;4128673;28;20213;-89
2022/03/03 00:42:34;;;;;;;27.40;17.08;;;;;;;2.48;75.30;98408.59;4130570;28;20284;-88
2022/03/03 00:44:37;;;;;;;24.83;16.25;;;;;;;2.45;75.07;98411.25;4128695;28;20284;-89
2022/03/03 00:46:40;;;;;;;25.13;17.58;;;;;;;2.42;75.78;98411.34;4144475;28;20223;-90
2022/03/03 00:48:43;;;;;;;23.02;16.27;;;;;;;2.42;75.74;98421.63;4133878;28;20207;-91
2022/03/03 00:50:47;;;;;;;25.15;16.75;;;;;;;2.40;75.51;98420.81;4144008;28;20205;-91
2022/03/03 00:52:50;;;;;;;23.92;16.63;;;;;;;2.39;75.33;98420.88;4144886;28;20234;-89
2022/03/03 00:54:53;;;;;;;22.30;16.60;;;;;;;2.38;75.69;98422.63;4145530;28;20283;-90
2022/03/03 00:56:56;;;;;;;24.05;15.68;;;;;;;2.35;75.92;98416.72;4144199;28;20655;-90
2022/03/03 00:59:01;;;;;;;22.52;15.75;;;;;;;2.32;75.97;98426.28;4144587;28;20204;-90
2022/03/03 01:01:04;;;;;;;25.58;17.13;;;;;;;2.30;75.83;98422.88;4144660;28;20232;-89
2022/03/03 01:03:07;;;;;;;23.23;16.27;;;;;;;2.26;75.51;98426.47;4144294;28;20207;-90
2022/03/03 01:05:11;;;;;;;22.88;16.23;;;;;;;2.23;75.84;98426.56;4141326;28;20587;-90
2022/03/03 01:07:14;;;;;;;28.83;17.55;;;;;;;2.20;75.59;98419.75;4142133;28;20255;-91
2022/03/03 01:09:17;;;;;;;28.10;17.27;;;;;;;2.17;75.94;98414.72;4146049;28;20278;-91
2022/03/03 01:11:20;;;;;;;25.50;17.50;;;;;;;2.21;75.52;98405.16;4142540;28;20227;-87
2022/03/03 01:13:23;;;;;;;25.27;17.85;;;;;;;2.18;76.17;98400.13;4140421;28;20210;-91
2022/03/03 01:15:28;;;;;;;26.13;16.38;;;;;;;2.16;75.85;98395.03;4142238;28;20204;-90
2022/03/03 01:17:31;;;;;;;24.25;16.75;;;;;;;2.17;76.41;98401.03;4145674;28;20215;-90
2022/03/03 01:19:34;;;;;;;24.90;16.65;;;;;;;2.17;76.05;98396.72;4143308;28;20209;-88
2022/03/03 01:21:37;;;;;;;23.85;17.52;;;;;;;2.13;75.93;98387.41;4140179;28;20571;-90
2022/03/03 01:23:40;;;;;;;25.45;16.60;;;;;;;2.16;76.52;98394.19;4140828;28;20212;-90
2022/03/03 01:25:44;;;;;;;30.42;17.00;;;;;;;2.15;76.17;98382.22;4142676;28;20207;-87
2022/03/03 01:27:47;;;;;;;24.20;17.38;;;;;;;2.12;75.94;98385.72;4141433;28;20208;-89
2022/03/03 01:29:50;;;;;;;22.25;15.95;;;;;;;2.12;75.37;98397.72;4129025;28;20196;-89
2022/03/03 01:31:55;;;;;;;25.67;15.73;;;;;;;2.07;76.13;98392.72;4143829;28;20222;-89
2022/03/03 01:33:58;;;;;;;25.80;18.00;;;;;;;2.04;75.69;98395.38;4143283;28;20220;-90
2022/03/03 01:36:01;;;;;;;23.77;16.70;;;;;;;2.01;76.32;98389.50;4144533;28;20215;-88
2022/03/03 01:38:04;;;;;;;28.88;17.00;;;;;;;2.01;76.39;98384.38;4130126;28;20220;-85
2022/03/03 01:40:08;;;;;;;26.25;17.40;;;;;;;2.02;76.97;98386.06;4144673;28;20669;-90
2022/03/03 01:42:14;;;;;;;26.52;16.38;;;;;;;2.01;76.40;98381.78;4142996;28;20259;-91
2022/03/03 01:44:17;;;;;;;24.52;16.30;;;;;;;1.97;76.50;98383.63;4144174;28;21162;-89
2022/03/03 01:46:20;;;;;;;24.75;16.23;;;;;;;1.94;76.96;98380.31;4134799;28;20209;-91
2022/03/03 01:48:25;;;;;;;26.65;16.35;;;;;;;1.94;77.30;98382.88;4158487;28;20204;-90
2022/03/03 01:50:29;;;;;;;25.98;16.77;;;;;;;1.94;76.88;98380.31;4146020;28;20660;-90
2022/03/03 01:52:32;;;;;;;25.23;16.95;;;;;;;1.89;76.47;98377.88;4127996;28;20643;-90
2022/03/03 01:54:35;;;;;;;24.77;15.82;;;;;;;1.86;76.82;98373.69;4142877;28;20207;-91
2022/03/03 01:56:40;;;;;;;22.13;16.20;;;;;;;1.84;76.93;98378.91;4137997;28;20203;-91
2022/03/03 01:58:43;;;;;;;26.35;16.50;;;;;;;1.86;76.72;98374.53;4136326;28;20543;-90
2022/03/03 02:00:46;;;;;;;24.40;16.65;;;;;;;1.86;77.05;98384.81;4128526;28;20204;-90
2022/03/03 02:02:50;;;;;;;25.08;16.88;;;;;;;1.86;77.22;98379.69;4141561;28;20214;-90
2022/03/03 02:04:55;;;;;;;26.05;17.35;;;;;;;1.87;76.92;98384.78;4143411;28;20215;-88
2022/03/03 02:06:58;;;;;;;23.40;16.15;;;;;;;1.85;77.14;98382.28;4125507;28;20271;-90
2022/03/03 02:09:01;;;;;;;25.65;16.00;;;;;;;1.80;76.85;98373.88;4142147;28;20212;-88
2022/03/03 02:11:05;;;;;;;24.33;17.67;;;;;;;1.76;76.57;98373.16;4142582;28;20192;-89
2022/03/03 02:13:08;;;;;;;22.80;15.25;;;;;;;1.76;77.22;98372.28;4129190;28;20930;-90
2022/03/03 02:15:16;;;;;;;23.63;15.82;;;;;;;1.71;77.06;98374.16;4141533;28;20880;-91
2022/03/03 02:17:20;;;;;;;21.92;15.18;;;;;;;1.67;76.97;98373.41;4126452;28;20223;-90
2022/03/03 02:19:23;;;;;;;30.60;16.67;;;;;;;1.66;76.66;98373.44;4139765;28;20207;-89
2022/03/03 02:21:27;;;;;;;20.95;15.40;;;;;;;1.66;76.76;98376.84;4140196;28;20203;-90
2022/03/03 02:23:30;;;;;;;24.10;16.02;;;;;;;1.65;77.14;98374.31;4139562;28;20204;-87
2022/03/03 02:25:33;;;;;;;26.83;17.25;;;;;;;1.65;77.17;98370.03;4142041;28;20587;-89
2022/03/03 02:27:37;;;;;;;22.05;15.35;;;;;;;1.63;76.55;98365.84;4143252;28;20205;-91
2022/03/03 02:29:40;;;;;;;23.85;16.30;;;;;;;1.58;77.16;98372.81;4141767;28;20200;-89
2022/03/03 02:31:44;;;;;;;24.52;17.60;;;;;;;1.60;76.84;98369.31;4123375;28;20306;-91
2022/03/03 02:33:48;;;;;;;25.88;16.52;;;;;;;1.60;77.31;98371.06;4138069;28;20235;-89
2022/03/03 02:35:51;;;;;;;28.77;16.85;;;;;;;1.56;77.35;98365.16;4143702;28;20219;-90
2022/03/03 02:37:55;;;;;;;24.92;16.58;;;;;;;1.55;76.82;98360.91;4124789;28;20815;-90
2022/03/03 02:39:58;;;;;;;22.95;15.93;;;;;;;1.55;77.32;98360.91;4125164;28;20287;-90
2022/03/03 02:42:02;;;;;;;25.45;16.05;;;;;;;1.55;76.75;98357.53;4137718;28;20290;-89
2022/03/03 02:44:05;;;;;;;26.50;16.38;;;;;;;1.55;77.45;98362.66;4141807;28;20251;-90
2022/03/03 02:46:09;;;;;;;23.95;16.40;;;;;;;1.56;77.00;98365.16;4143705;28;20251;-90
2022/03/03 02:48:12;;;;;;;24.33;16.75;;;;;;;1.54;77.74;98360.97;4141419;28;20200;-89
2022/03/03 02:50:16;;;;;;;24.88;17.35;;;;;;;1.49;77.38;98362.81;4143929;28;20192;-90
2022/03/03 02:52:19;;;;;;;26.63;17.08;;;;;;;1.40;76.95;98361.34;4129059;28;20213;-90
2022/03/03 02:54:23;;;;;;;29.20;17.60;;;;;;;1.40;77.70;98361.34;4138139;28;20203;-88
2022/03/03 02:56:26;;;;;;;24.70;16.60;;;;;;;1.39;77.65;98362.22;4144941;28;20687;-90
2022/03/03 02:58:28;;;;;;;25.52;17.27;;;;;;;1.36;76.99;98365.78;4143145;28;20204;-91
2022/03/03 03:00:38;;;;;;;23.63;15.43;;;;;;;1.36;76.87;98368.34;4126471;28;20210;-87
2022/03/03 03:02:42;;;;;;;23.55;15.70;;;;;;;1.30;77.07;98368.53;4138625;28;20207;-87
2022/03/03 03:04:45;;;;;;;23.30;16.25;;;;;;;1.31;76.78;98360.78;4142037;28;20215;-90
2022/03/03 03:06:48;;;;;;;23.23;16.08;;;;;;;1.28;76.58;98362.56;4127888;28;20234;-89
2022/03/03 03:08:51;;;;;;;25.15;16.33;;;;;;;1.21;76.58;98355.94;4140517;28;20266;-90
2022/03/03 03:10:56;;;;;;;24.42;15.30;;;;;;;1.16;76.59;98365.50;4138403;28;20746;-91
2022/03/03 03:12:59;;;;;;;26.33;16.45;;;;;;;1.11;76.94;98359.63;4142040;28;20844;-91
2022/03/03 03:15:02;;;;;;;27.08;16.95;;;;;;;1.04;77.31;98364.09;4139549;28;20211;-87
2022/03/03 03:17:06;;;;;;;22.30;15.52;;;;;;;1.02;76.86;98352.16;4141127;28;20834;-90
2022/03/03 03:19:09;;;;;;;22.95;16.30;;;;;;;1.01;77.04;98353.06;4124198;28;20212;-90
2022/03/03 03:21:12;;;;;;;22.30;15.52;;;;;;;1.01;77.48;98353.06;4144800;28;20207;-89
2022/03/03 03:23:17;;;;;;;26.63;15.82;;;;;;;1.04;77.90;98353.81;4142106;28;20204;-90
2022/03/03 03:25:20;;;;;;;26.50;16.30;;;;;;;1.07;77.48;98346.03;4155051;28;20215;-90
2022/03/03 03:27:24;;;;;;;24.33;16.70;;;;;;;1.14;77.67;98341.56;4141644;28;20283;-90
2022/03/03 03:29:27;;;;;;;23.85;15.60;;;;;;;1.14;77.81;98339.00;4138189;28;20208;-91
2022/03/03 03:31:31;;;;;;;24.88;17.25;;;;;;;1.13;77.54;98345.03;4142756;28;20208;-88
2022/03/03 03:33:34;;;;;;;26.77;17.27;;;;;;;1.11;77.79;98341.66;4142125;28;20255;-91
2022/03/03 03:35:37;;;;;;;26.95;17.52;;;;;;;1.06;77.91;98331.50;4142030;28;20227;-92
2022/03/03 03:37:40;;;;;;;24.88;16.40;;;;;;;1.03;77.66;98325.63;4126351;28;20216;-89
2022/03/03 03:39:44;;;;;;;26.35;16.95;;;;;;;1.03;77.97;98320.50;4122330;28;20294;-89
2022/03/03 03:41:47;;;;;;;24.20;16.55;;;;;;;1.05;77.69;98313.59;4120652;28;20664;-88
2022/03/03 03:43:55;;;;;;;25.05;15.35;;;;;;;1.07;77.82;98316.97;4139877;28;20208;-89
2022/03/03 03:45:58;;;;;;;25.40;15.75;;;;;;;1.02;78.43;98316.22;4145172;28;20729;-89
2022/03/03 03:48:02;;;;;;;25.35;15.88;;;;;;;1.00;78.74;98321.41;4140822;28;20231;-89
2022/03/03 03:50:08;;;;;;;24.27;17.00;;;;;;;0.99;78.54;98318.88;4141780;28;20207;-87
2022/03/03 03:52:11;;;;;;;24.70;16.60;;;;;;;0.97;78.43;98320.66;4138734;28;20238;-87
2022/03/03 03:54:14;;;;;;;26.83;16.48;;;;;;;0.95;78.53;98314.75;4139501;28;20231;-90
2022/03/03 03:56:18;;;;;;;23.63;15.52;;;;;;;0.96;78.14;98313.84;4141793;28;20202;-89
2022/03/03 03:58:21;;;;;;;23.38;16.90;;;;;;;0.97;78.33;98320.66;4140608;28;20215;-88
2022/03/03 04:00:26;;;;;;;22.77;15.65;;;;;;;0.96;78.41;98313.84;4144331;28;20220;-90
2022/03/03 04:02:29;;;;;;;23.88;15.90;;;;;;;0.90;78.36;98308.03;4138711;28;20742;-88
2022/03/03 04:04:32;;;;;;;23.75;16.25;;;;;;;0.84;77.72;98311.59;4142994;28;20211;-89
2022/03/03 04:06:36;;;;;;;22.77;15.35;;;;;;;0.80;78.59;98304.88;4139869;28;20726;-89
2022/03/03 04:08:39;;;;;;;24.30;15.93;;;;;;;0.81;78.73;98298.84;4141245;28;20585;-89
2022/03/03 04:10:42;;;;;;;26.83;16.75;;;;;;;0.83;78.61;98297.09;4143147;28;20215;-91
2022/03/03 04:12:45;;;;;;;25.60;16.83;;;;;;;0.81;78.43;98296.28;4122902;28;20612;-86
2022/03/03 04:14:48;;;;;;;25.17;16.05;;;;;;;0.80;78.57;98296.31;4135288;28;20216;-88
2022/03/03 04:16:53;;;;;;;22.20;15.65;;;;;;;0.79;78.56;98299.78;4140262;28;20675;-89
2022/03/03 04:18:56;;;;;;;22.67;15.85;;;;;;;0.79;78.44;98282.66;4141498;28;20207;-89
2022/03/03 04:20:59;;;;;;;23.75;15.55;;;;;;;0.80;78.58;98292.06;4124303;28;20212;-90
2022/03/03 04:23:02;;;;;;;25.00;17.13;;;;;;;0.79;78.60;98289.53;4136710;28;20600;-89
2022/03/03 04:25:06;;;;;;;24.48;16.92;;;;;;;0.78;78.68;98288.66;4139527;28;21002;-89
2022/03/03 04:27:09;;;;;;;25.45;16.33;;;;;;;0.76;79.13;98289.59;4140694;28;20207;-90
2022/03/03 04:29:12;;;;;;;27.48;15.95;;;;;;;0.78;78.94;98288.66;4125787;28;20222;-90
2022/03/03 04:31:15;;;;;;;24.42;15.75;;;;;;;0.76;79.37;98287.03;4139693;28;20279;-89
2022/03/03 04:33:20;;;;;;;25.83;16.15;;;;;;;0.74;78.73;98287.09;4124657;28;20208;-89
2022/03/03 04:35:26;;;;;;;23.65;16.10;;;;;;;0.70;79.23;98288.03;4140898;28;20289;-90
2022/03/03 04:37:30;;;;;;;23.23;15.85;;;;;;;0.71;78.81;98283.78;4139550;28;20659;-89
2022/03/03 04:39:33;;;;;;;25.42;16.98;;;;;;;0.68;79.05;98291.53;4140725;28;20210;-88
2022/03/03 04:41:36;;;;;;;23.55;15.95;;;;;;;0.67;79.10;98290.69;4125769;28;20223;-89
2022/03/03 04:43:39;;;;;;;25.73;15.95;;;;;;;0.65;78.47;98289.91;4140009;28;20254;-90
2022/03/03 04:45:42;;;;;;;24.92;16.73;;;;;;;0.64;78.99;98287.38;4143512;28;20202;-89
2022/03/03 04:47:45;;;;;;;24.58;16.80;;;;;;;0.64;78.86;98284.81;4140303;28;20217;-89
2022/03/03 04:49:50;;;;;;;27.42;16.73;;;;;;;0.61;78.93;98285.72;4140705;28;20211;-89
2022/03/03 04:51:54;;;;;;;26.48;15.30;;;;;;;0.56;78.55;98290.13;4141934;28;20262;-90
2022/03/03 04:53:57;;;;;;;26.05;16.48;;;;;;;0.54;78.52;98284.22;4137556;28;20266;-90
2022/03/03 04:56:00;;;;;;;25.30;16.05;;;;;;;0.55;78.19;98277.34;4138293;28;20211;-90
2022/03/03 04:58:03;;;;;;;28.35;17.50;;;;;;;0.51;78.64;98266.34;4133128;28;20283;-89
2022/03/03 05:00:09;;;;;;;28.33;17.52;;;;;;;0.50;78.96;98269.78;4142952;28;20204;-89
2022/03/03 05:02:12;;;;;;;27.80;17.55;;;;;;;0.48;79.54;98265.56;4157738;28;20274;-89
2022/03/03 05:04:15;;;;;;;26.80;16.88;;;;;;;0.48;79.19;98268.97;4153843;28;20569;-88
2022/03/03 05:06:21;;;;;;;30.17;16.83;;;;;;;0.43;78.41;98264.00;4141579;28;20287;-88
2022/03/03 05:08:24;;;;;;;23.73;15.25;;;;;;;0.38;78.82;98259.00;4139771;28;20261;-87
2022/03/03 05:10:28;;;;;;;22.20;15.90;;;;;;;0.33;78.07;98267.69;4139937;28;20747;-86
2022/03/03 05:12:31;;;;;;;25.90;15.77;;;;;;;0.29;78.22;98266.09;4140606;28;20204;-88
2022/03/03 05:14:34;;;;;;;29.63;18.33;;;;;;;0.24;79.04;98271.34;4139102;28;20221;-88
2022/03/03 05:16:37;;;;;;;24.83;16.92;;;;;;;0.26;78.95;98268.75;4125346;28;20245;-89
2022/03/03 05:18:40;;;;;;;30.40;18.17;;;;;;;0.27;78.42;98265.28;4125566;28;20242;-88
2022/03/03 05:20:43;;;;;;;25.40;16.75;;;;;;;0.28;78.56;98264.41;4140667;28;20208;-89
2022/03/03 05:22:50;;;;;;;29.23;17.27;;;;;;;0.27;78.64;98262.72;4140490;28;20642;-90
2022/03/03 05:24:53;;;;;;;22.33;15.60;;;;;;;0.31;78.37;98261.75;4140905;28;20204;-89
2022/03/03 05:26:56;;;;;;;27.95;17.15;;;;;;;0.34;78.69;98252.25;4139185;28;20374;-89
2022/03/03 05:28:59;;;;;;;26.10;16.75;;;;;;;0.39;78.76;98268.34;4144112;28;20262;-89
2022/03/03 05:31:03;;;;;;;25.73;15.20;;;;;;;0.42;78.93;98273.41;4141294;28;20196;-87
2022/03/03 05:33:06;;;;;;;26.55;16.65;;;;;;;0.41;79.17;98271.75;4143698;28;20204;-87
2022/03/03 05:35:09;;;;;;;26.02;17.10;;;;;;;0.43;79.44;98267.41;4144528;28;20243;-87
2022/03/03 05:37:14;;;;;;;23.77;15.63;;;;;;;0.45;79.44;98269.94;4143981;28;20258;-89
2022/03/03 05:39:19;;;;;;;29.95;17.23;;;;;;;0.41;79.02;98274.31;4142674;28;20224;-87
2022/03/03 05:41:22;;;;;;;27.83;17.10;;;;;;;0.38;78.50;98276.94;4144066;28;20211;-87
2022/03/03 05:43:25;;;;;;;27.73;17.27;;;;;;;0.39;78.47;98268.34;4141295;28;20196;-87
2022/03/03 05:45:28;;;;;;;27.02;16.67;;;;;;;0.37;78.29;98264.16;4140758;28;20219;-87
2022/03/03 05:47:31;;;;;;;26.20;16.35;;;;;;;0.40;78.28;98256.41;4127640;28;20549;-85
2022/03/03 05:49:36;;;;;;;27.45;16.95;;;;;;;0.38;78.22;98258.19;4138708;28;20207;-86
2022/03/03 05:51:38;;;;;;;23.25;16.48;;;;;;;0.36;78.33;98257.34;4143246;28;20204;-85
2022/03/03 05:53:42;;;;;;;26.40;17.10;;;;;;;0.35;78.56;98253.94;4138136;28;20208;-85
2022/03/03 05:55:49;;;;;;;26.52;17.00;;;;;;;0.35;78.82;98255.69;4130374;28;20699;-85
2022/03/03 05:57:59;;;;;;;27.48;17.88;;;;;;;0.36;79.14;98267.59;4137199;28;20207;-88
2022/03/03 06:00:06;;;;;;;31.35;18.10;;;;;;;0.38;79.26;98266.69;4142299;28;20211;-85
2022/03/03 06:02:14;;;;;;;26.13;16.60;;;;;;;0.37;78.78;98264.16;4138581;28;20207;-85
2022/03/03 06:04:17;;;;;;;24.63;16.73;;;;;;;0.33;78.03;98260.84;4122652;28;20208;-85
2022/03/03 06:06:23;;;;;;;24.40;16.20;;;;;;;0.37;78.64;98264.16;4141582;28;20286;-85
2022/03/03 06:08:34;;;;;;;25.40;16.48;;;;;;;0.37;78.50;98269.31;4145203;28;20219;-85
2022/03/03 06:10:44;;;;;;;26.83;16.67;;;;;;;0.34;77.80;98269.38;4124138;28;20212;-86
2022/03/03 06:12:51;;;;;;;23.98;15.82;;;;;;;0.28;77.82;98270.38;4125519;28;20213;-85
2022/03/03 06:14:56;;;;;;;25.52;16.98;;;;;;;0.30;78.45;98270.31;4141586;28;20784;-86
2022/03/03 06:17:00;;;;;;;25.45;16.98;;;;;;;0.32;78.71;98268.59;4144728;28;20199;-85
2022/03/03 06:19:04;;;;;;;25.95;17.13;;;;;;;0.32;78.56;98261.72;4140215;28;20295;-85
2022/03/03 06:21:07;;;;;;;25.90;17.40;;;;;;;0.33;78.66;98255.72;4119372;28;20212;-85
2022/03/03 06:23:11;;;;;;;30.58;18.10;;;;;;;0.41;78.88;98251.22;4138837;28;20208;-85
2022/03/03 06:25:14;;;;;;;26.42;16.55;;;;;;;0.61;79.23;98234.41;4141620;28;20314;-85
2022/03/03 06:27:17;;;;;;;24.60;17.10;;;;;;;0.83;79.16;98234.66;4140507;28;20206;-86
2022/03/03 06:29:21;;;;;;;29.88;16.77;;;;;;;0.99;78.72;98229.91;4146223;28;20271;-85
2022/03/03 06:31:26;;;;;;;26.50;17.77;;;;;;;1.13;78.28;98220.06;4145157;28;20210;-86
2022/03/03 06:33:29;;;;;;;24.48;16.90;;;;;;;1.23;77.86;98210.38;4127372;28;20291;-86
2022/03/03 06:35:36;;;;;;;29.20;19.05;;;;;;;1.36;77.57;98216.81;4141941;28;20231;-86
2022/03/03 06:37:39;;;;;;;26.05;17.02;;;;;;;1.53;77.51;98212.84;4137773;28;20743;-86
2022/03/03 06:39:42;;;;;;;23.67;16.52;;;;;;;1.69;76.86;98214.88;4144452;28;20757;-84
2022/03/03 06:41:45;;;;;;;26.15;17.08;;;;;;;1.83;75.26;98214.44;4143230;28;20260;-87
2022/03/03 06:43:48;;;;;;;25.27;16.95;;;;;;;1.78;73.81;98217.16;4127138;28;20296;-87
2022/03/03 06:45:52;;;;;;;25.52;16.70;;;;;;;1.78;74.43;98222.28;4126541;28;20301;-86
2022/03/03 06:47:56;;;;;;;26.15;16.30;;;;;;;1.84;74.05;98244.41;4142322;28;20573;-86
2022/03/03 06:49:59;;;;;;;27.50;17.23;;;;;;;1.97;73.99;98252.50;4141779;28;20208;-86
2022/03/03 06:52:06;;;;;;;42.92;28.05;;;;;;;2.03;73.80;98254.88;4142619;28;20215;-86
2022/03/03 06:54:14;;;;;;;32.40;20.75;;;;;;;2.15;74.60;98271.63;4142035;28;20216;-87
2022/03/03 06:56:18;;;;;;;28.33;19.50;;;;;;;2.35;74.78;98267.53;4144446;28;20282;-84
2022/03/03 06:58:25;;;;;;;24.65;16.98;;;;;;;2.49;74.00;98255.84;4138131;28;20208;-86
2022/03/03 07:00:31;;;;;;;25.13;16.52;;;;;;;2.59;73.08;98251.25;4129271;28;20766;-84
2022/03/03 07:02:37;;;;;;;27.77;18.65;;;;;;;2.66;73.56;98242.41;4132980;28;20261;-84
2022/03/03 07:04:40;;;;;;;29.63;18.20;;;;;;;2.78;74.30;98235.09;4136337;28;20235;-84
2022/03/03 07:06:45;;;;;;;29.50;18.52;;;;;;;2.93;73.66;98239.69;4145345;28;20228;-84
2022/03/03 07:08:51;;;;;;;26.75;17.95;;;;;;;3.10;73.58;98250.25;4138835;28;20221;-84
2022/03/03 07:10:54;;;;;;;26.40;18.10;;;;;;;3.25;73.16;98252.22;4140154;28;20614;-85
2022/03/03 07:12:58;;;;;;;30.85;18.80;;;;;;;3.40;71.91;98255.09;4125280;28;20202;-84
2022/03/03 07:15:01;;;;;;;33.15;20.00;;;;;;;3.52;71.87;98255.47;4137732;28;20617;-84
2022/03/03 07:17:06;;;;;;;38.65;21.65;;;;;;;3.70;71.46;98257.34;4143228;28;20236;-86
2022/03/03 07:19:21;;;;;;;31.17;20.40;;;;;;;3.85;71.61;98252.41;4142765;28;20252;-86
2022/03/03 07:21:31;;;;;;;36.38;20.40;;;;;;;4.02;71.38;98244.00;4143977;28;20205;-86
2022/03/03 07:23:36;;;;;;;29.52;20.27;;;;;;;4.20;71.01;98240.69;4142008;28;20212;-87
2022/03/03 07:25:43;;;;;;;26.70;17.15;;;;;;;4.29;70.99;98241.13;4142572;28;20197;-86
2022/03/03 07:27:47;;;;;;;26.48;19.27;;;;;;;4.43;69.92;98242.22;4119837;28;20253;-88
2022/03/03 07:29:55;;;;;;;23.98;17.00;;;;;;;4.61;71.33;98240.63;4141020;28;20202;-87
2022/03/03 07:32:00;;;;;;;51.60;33.40;;;;;;;4.78;70.53;98246.72;4124545;28;20214;-87
2022/03/03 07:34:07;;;;;;;39.60;25.10;;;;;;;4.76;68.88;98239.06;4140882;28;20665;-87
2022/03/03 07:36:14;;;;;;;38.00;24.35;;;;;;;4.81;69.04;98236.25;4141846;28;20268;-87
2022/03/03 07:38:19;;;;;;;37.38;21.30;;;;;;;4.99;70.15;98231.16;4139472;28;20593;-86
2022/03/03 07:40:23;;;;;;;29.58;19.30;;;;;;;5.18;70.37;98232.81;4136467;28;20700;-86
2022/03/03 07:42:28;;;;;;;26.35;18.85;;;;;;;5.33;70.76;98236.47;4120991;28;20294;-86
2022/03/03 07:44:31;;;;;;;28.75;18.90;;;;;;;5.45;70.25;98236.75;4125255;28;20215;-86
2022/03/03 07:46:34;;;;;;;23.10;16.75;;;;;;;5.55;69.29;98238.03;4128129;28;20210;-86
2022/03/03 07:48:38;;;;;;;23.83;18.13;;;;;;;5.66;69.47;98236.59;4122629;28;20212;-86
2022/03/03 07:50:42;;;;;;;23.23;16.85;;;;;;;5.75;67.31;98230.19;4138963;28;20243;-86
2022/03/03 07:52:46;;;;;;;25.33;17.77;;;;;;;5.73;67.41;98226.81;4138100;28;20218;-87
2022/03/03 07:54:49;;;;;;;26.35;18.33;;;;;;;5.65;67.52;98234.06;4140667;28;20210;-86
2022/03/03 07:56:57;;;;;;;25.80;17.83;;;;;;;5.64;67.41;98238.44;4125584;28;20621;-87
2022/03/03 07:59:03;;;;;;;27.13;18.83;;;;;;;5.77;68.66;98234.41;4137846;28;20685;-87
2022/03/03 08:01:10;;;;;;;23.95;17.27;;;;;;;5.81;67.38;98238.50;4142164;28;20271;-85
2022/03/03 08:03:15;;;;;;;26.05;17.00;;;;;;;5.88;67.98;98232.13;4135553;28;20210;-84
2022/03/03 08:05:19;;;;;;;24.73;16.83;;;;;;;5.95;67.20;98238.69;4139008;28;20204;-86
2022/03/03 08:07:22;;;;;;;29.77;17.23;;;;;;;5.97;66.48;98236.88;4137128;28;20579;-86
2022/03/03 08:09:29;;;;;;;26.25;17.75;;;;;;;6.10;68.88;98243.97;4140326;28;20208;-86
2022/03/03 08:11:32;;;;;;;24.98;17.80;;;;;;;6.37;67.32;98239.19;4139488;28;20275;-86
2022/03/03 08:13:35;;;;;;;25.55;19.95;;;;;;;6.66;67.86;98239.38;4137218;28;20756;-86
2022/03/03 08:15:39;;;;;;;23.65;18.20;;;;;;;6.90;66.88;98239.00;4141085;28;20214;-86
2022/03/03 08:17:45;;;;;;;27.95;20.80;;;;;;;7.06;65.68;98240.69;4138717;28;20232;-86
2022/03/03 08:19:48;;;;;;;28.98;18.70;;;;;;;7.19;64.23;98233.13;4135448;28;20797;-85
2022/03/03 08:21:52;;;;;;;21.45;16.45;;;;;;;7.28;64.30;98230.88;4126387;28;20624;-86
2022/03/03 08:23:58;;;;;;;26.05;18.30;;;;;;;7.37;63.14;98245.97;4154931;28;20199;-85
2022/03/03 08:26:03;;;;;;;29.10;18.48;;;;;;;7.49;63.81;98246.13;4137421;28;20683;-86
2022/03/03 08:28:07;;;;;;;24.15;17.65;;;;;;;7.66;64.76;98250.41;4135488;28;20634;-86
2022/03/03 08:30:12;;;;;;;26.58;18.52;;;;;;;7.78;64.25;98241.97;4140860;28;20219;-86
2022/03/03 08:32:18;;;;;;;22.27;17.40;;;;;;;7.95;63.14;98237.50;4123838;28;20200;-86
2022/03/03 08:34:29;;;;;;;30.40;25.38;;;;;;;8.08;62.67;98244.53;4139986;28;20246;-86
2022/03/03 08:36:36;;;;;;;23.63;16.80;;;;;;;8.15;61.58;98240.72;4136867;28;20275;-86
2022/03/03 08:38:46;;;;;;;24.35;18.15;;;;;;;8.28;63.43;98236.47;4136585;28;20277;-86
2022/03/03 08:40:53;;;;;;;22.25;17.02;;;;;;;8.38;62.96;98234.22;4138630;28;20217;-86
2022/03/03 08:43:01;;;;;;;24.23;18.17;;;;;;;8.55;63.44;98237.50;4141756;28;20208;-86
2022/03/03 08:45:07;;;;;;;23.77;17.20;;;;;;;8.68;62.52;98231.50;4137201;28;20700;-86
2022/03/03 08:47:15;;;;;;;24.13;17.30;;;;;;;8.82;62.72;98235.88;4139604;28;20667;-86
2022/03/03 08:49:19;;;;;;;23.33;17.67;;;;;;;8.98;62.81;98233.13;4140758;28;20219;-86
2022/03/03 08:51:22;;;;;;;24.45;17.48;;;;;;;9.07;59.85;98232.56;4140332;28;20246;-87
2022/03/03 08:53:26;;;;;;;24.63;17.00;;;;;;;9.20;60.51;98230.91;4140437;28;20215;-87
2022/03/03 08:55:29;;;;;;;21.77;17.45;;;;;;;9.27;60.51;98237.41;4136497;28;20643;-87
2022/03/03 08:57:32;;;;;;;21.87;17.40;;;;;;;9.24;59.90;98227.16;4136135;28;20814;-87
2022/03/03 08:59:37;;;;;;;20.87;16.57;;;;;;;9.32;59.64;98222.34;4141509;28;20636;-86
2022/03/03 09:01:40;;;;;;;23.40;16.38;;;;;;;9.29;57.46;98227.75;4122781;28;20632;-86
2022/03/03 09:03:43;;;;;;;24.10;18.07;;;;;;;9.34;60.71;98227.47;4143411;28;20208;-87
2022/03/03 09:05:46;;;;;;;23.02;17.13;;;;;;;9.35;58.97;98237.78;4139199;28;20659;-86
2022/03/03 09:07:49;;;;;;;20.70;15.98;;;;;;;9.39;59.32;98236.66;4144268;28;20208;-86
2022/03/03 09:09:53;;;;;;;22.43;17.70;;;;;;;9.53;59.86;98241.84;4141715;28;20249;-86
2022/03/03 09:11:56;;;;;;;25.00;17.33;;;;;;;9.68;59.46;98233.94;4139431;28;20639;-87
2022/03/03 09:13:59;;;;;;;20.20;16.30;;;;;;;9.86;61.10;98233.59;4144055;28;20649;-86
2022/03/03 09:16:04;;;;;;;23.13;18.53;;;;;;;10.02;59.05;98225.69;4144512;28;21032;-86
2022/03/03 09:18:07;;;;;;;21.50;16.60;;;;;;;10.09;58.71;98230.41;4130058;28;21035;-86
2022/03/03 09:20:13;;;;;;;25.17;17.87;;;;;;;10.20;59.28;98229.72;4147210;28;21026;-87
2022/03/03 09:22:17;;;;;;;21.27;17.47;;;;;;;10.32;59.63;98221.94;4142525;28;20642;-87
2022/03/03 09:24:20;;;;;;;24.10;19.10;;;;;;;10.42;58.98;98218.63;4143101;28;20631;-87
2022/03/03 09:26:23;;;;;;;23.07;18.80;;;;;;;10.51;58.42;98206.75;4131932;28;20632;-88
2022/03/03 09:28:26;;;;;;;25.97;18.80;;;;;;;10.39;57.50;98223.22;4146296;28;20663;-85
2022/03/03 09:30:29;;;;;;;25.60;18.57;;;;;;;10.43;58.50;98224.66;4140005;28;20645;-85
2022/03/03 09:32:33;;;;;;;23.53;18.80;;;;;;;10.56;59.18;98222.94;4127486;28;20651;-84
2022/03/03 09:34:36;;;;;;;23.70;18.47;;;;;;;10.65;57.74;98223.16;4142621;28;20641;-84
2022/03/03 09:36:39;;;;;;;23.47;19.07;;;;;;;10.71;57.89;98217.53;4144883;28;20634;-83
2022/03/03 09:38:42;;;;;;;25.60;17.77;;;;;;;10.86;58.17;98216.50;4143634;28;21059;-84